sensor_id;sensor_type;location;lat;lon;timestamp;P1;durP1;ratioP1;P2;durP2;ratioP2
40731;SDS011;26420;52.256;9.096;2022-07-05T00:03:12;1.17;;;1.00;;
40731;SDS011;26420;52.256;9.096;2022-07-05T00:08:17;2.75;;;1.20;;
40731;SDS011;26420;52.256;9.096;2022-07-05T00:13:22;1.27;;;1.05;;
40731;SDS011;26420;52.256;9.096;2022-07-05T00:18:27;1.48;;;1.10;;
40731;SDS011;26420;52.256;9.096;2022-07-05T00:23:32;3.38;;;1.40;;
40731;SDS011;26420;52.256;9.096;2022-07-05T00:28:37;2.92;;;1.23;;
40731;SDS011;26420;52.256;9.096;2022-07-05T00:33:42;1.70;;;1.10;;
40731;SDS011;26420;52.256;9.096;2022-07-05T00:38:48;2.20;;;1.20;;
40731;SDS011;26420;52.256;9.096;2022-07-05T00:43:59;3.78;;;1.42;;
40731;SDS011;26420;52.256;9.096;2022-07-05T00:49:05;2.53;;;1.77;;
40731;SDS011;26420;52.256;9.096;2022-07-05T00:54:10;4.50;;;1.52;;
40731;SDS011;26420;52.256;9.096;2022-07-05T00:59:16;1.73;;;1.30;;
40731;SDS011;26420;52.256;9.096;2022-07-05T01:04:21;2.08;;;1.58;;
40731;SDS011;26420;52.256;9.096;2022-07-05T01:09:27;6.45;;;1.70;;
40731;SDS011;26420;52.256;9.096;2022-07-05T01:14:32;4.03;;;1.38;;
40731;SDS011;26420;52.256;9.096;2022-07-05T01:19:38;5.25;;;1.70;;
40731;SDS011;26420;52.256;9.096;2022-07-05T01:25:24;3.90;;;1.63;;
40731;SDS011;26420;52.256;9.096;2022-07-05T01:30:29;2.65;;;1.17;;
40731;SDS011;26420;52.256;9.096;2022-07-05T01:35:32;3.83;;;1.70;;
40731;SDS011;26420;52.256;9.096;2022-07-05T01:40:34;2.47;;;1.55;;
40731;SDS011;26420;52.256;9.096;2022-07-05T01:45:36;2.47;;;1.52;;
40731;SDS011;26420;52.256;9.096;2022-07-05T01:50:47;1.90;;;1.65;;
40731;SDS011;26420;52.256;9.096;2022-07-05T01:55:50;2.45;;;1.52;;
40731;SDS011;26420;52.256;9.096;2022-07-05T02:00:53;4.50;;;1.40;;
40731;SDS011;26420;52.256;9.096;2022-07-05T02:05:55;3.63;;;1.92;;
40731;SDS011;26420;52.256;9.096;2022-07-05T02:10:58;2.00;;;1.80;;
40731;SDS011;26420;52.256;9.096;2022-07-05T02:16:00;2.35;;;1.50;;
40731;SDS011;26420;52.256;9.096;2022-07-05T02:21:03;3.22;;;1.60;;
40731;SDS011;26420;52.256;9.096;2022-07-05T02:26:05;2.10;;;1.50;;
40731;SDS011;26420;52.256;9.096;2022-07-05T02:31:10;3.72;;;1.42;;
40731;SDS011;26420;52.256;9.096;2022-07-05T02:36:14;3.50;;;1.80;;
40731;SDS011;26420;52.256;9.096;2022-07-05T02:41:16;2.15;;;1.90;;
40731;SDS011;26420;52.256;9.096;2022-07-05T02:46:21;2.83;;;2.15;;
40731;SDS011;26420;52.256;9.096;2022-07-05T02:51:26;2.83;;;1.98;;
40731;SDS011;26420;52.256;9.096;2022-07-05T02:56:29;4.03;;;2.28;;
40731;SDS011;26420;52.256;9.096;2022-07-05T03:01:32;3.28;;;1.80;;
40731;SDS011;26420;52.256;9.096;2022-07-05T03:06:40;4.03;;;1.88;;
40731;SDS011;26420;52.256;9.096;2022-07-05T03:11:42;3.53;;;1.95;;
40731;SDS011;26420;52.256;9.096;2022-07-05T03:16:45;3.50;;;2.10;;
40731;SDS011;26420;52.256;9.096;2022-07-05T03:21:48;3.00;;;1.90;;
40731;SDS011;26420;52.256;9.096;2022-07-05T03:26:50;3.08;;;1.60;;
40731;SDS011;26420;52.256;9.096;2022-07-05T03:31:53;3.15;;;1.73;;
40731;SDS011;26420;52.256;9.096;2022-07-05T03:36:57;3.33;;;1.83;;
40731;SDS011;26420;52.256;9.096;2022-07-05T03:41:59;5.63;;;2.42;;
40731;SDS011;26420;52.256;9.096;2022-07-05T03:47:04;6.03;;;2.10;;
40731;SDS011;26420;52.256;9.096;2022-07-05T03:52:07;2.50;;;2.00;;
40731;SDS011;26420;52.256;9.096;2022-07-05T03:57:10;3.17;;;1.95;;
40731;SDS011;26420;52.256;9.096;2022-07-05T04:02:13;2.70;;;1.95;;
40731;SDS011;26420;52.256;9.096;2022-07-05T04:07:16;3.17;;;2.17;;
40731;SDS011;26420;52.256;9.096;2022-07-05T04:12:19;4.05;;;1.80;;
40731;SDS011;26420;52.256;9.096;2022-07-05T04:17:22;4.63;;;1.90;;
40731;SDS011;26420;52.256;9.096;2022-07-05T04:22:24;5.00;;;1.88;;
40731;SDS011;26420;52.256;9.096;2022-07-05T04:27:28;3.17;;;2.10;;
40731;SDS011;26420;52.256;9.096;2022-07-05T04:32:31;3.10;;;1.92;;
40731;SDS011;26420;52.256;9.096;2022-07-05T04:37:33;5.38;;;2.60;;
40731;SDS011;26420;52.256;9.096;2022-07-05T04:42:36;6.90;;;2.30;;
40731;SDS011;26420;52.256;9.096;2022-07-05T04:47:38;4.90;;;2.20;;
40731;SDS011;26420;52.256;9.096;2022-07-05T04:52:41;2.20;;;2.00;;
40731;SDS011;26420;52.256;9.096;2022-07-05T04:57:44;2.35;;;2.15;;
40731;SDS011;26420;52.256;9.096;2022-07-05T05:02:46;4.28;;;2.15;;
40731;SDS011;26420;52.256;9.096;2022-07-05T05:07:48;3.72;;;2.35;;
40731;SDS011;26420;52.256;9.096;2022-07-05T05:12:50;3.58;;;2.50;;
40731;SDS011;26420;52.256;9.096;2022-07-05T05:17:52;4.55;;;2.30;;
40731;SDS011;26420;52.256;9.096;2022-07-05T05:22:54;6.45;;;2.45;;
40731;SDS011;26420;52.256;9.096;2022-07-05T05:27:56;4.60;;;2.60;;
40731;SDS011;26420;52.256;9.096;2022-07-05T05:32:59;2.83;;;2.40;;
40731;SDS011;26420;52.256;9.096;2022-07-05T05:38:01;5.88;;;3.00;;
40731;SDS011;26420;52.256;9.096;2022-07-05T05:43:03;3.95;;;2.47;;
40731;SDS011;26420;52.256;9.096;2022-07-05T05:48:05;5.65;;;2.33;;
40731;SDS011;26420;52.256;9.096;2022-07-05T05:53:08;4.97;;;2.63;;
40731;SDS011;26420;52.256;9.096;2022-07-05T05:58:14;4.00;;;2.30;;
40731;SDS011;26420;52.256;9.096;2022-07-05T06:03:16;3.90;;;2.20;;
40731;SDS011;26420;52.256;9.096;2022-07-05T06:08:18;4.63;;;2.28;;
40731;SDS011;26420;52.256;9.096;2022-07-05T06:13:21;3.00;;;2.30;;
40731;SDS011;26420;52.256;9.096;2022-07-05T06:18:23;2.83;;;2.00;;
40731;SDS011;26420;52.256;9.096;2022-07-05T06:23:25;2.85;;;2.10;;
40731;SDS011;26420;52.256;9.096;2022-07-05T06:28:27;4.28;;;2.10;;
40731;SDS011;26420;52.256;9.096;2022-07-05T06:33:29;2.90;;;1.70;;
40731;SDS011;26420;52.256;9.096;2022-07-05T06:38:31;3.20;;;1.80;;
40731;SDS011;26420;52.256;9.096;2022-07-05T06:43:33;1.83;;;1.30;;
40731;SDS011;26420;52.256;9.096;2022-07-05T06:48:37;1.80;;;1.50;;
40731;SDS011;26420;52.256;9.096;2022-07-05T06:53:40;3.00;;;1.35;;
40731;SDS011;26420;52.256;9.096;2022-07-05T06:58:43;2.70;;;1.50;;
40731;SDS011;26420;52.256;9.096;2022-07-05T07:03:45;3.08;;;1.25;;
40731;SDS011;26420;52.256;9.096;2022-07-05T07:09:08;2.95;;;1.08;;
40731;SDS011;26420;52.256;9.096;2022-07-05T07:14:19;3.40;;;1.13;;
40731;SDS011;26420;52.256;9.096;2022-07-05T07:19:21;4.07;;;1.33;;
40731;SDS011;26420;52.256;9.096;2022-07-05T07:24:23;2.03;;;1.00;;
40731;SDS011;26420;52.256;9.096;2022-07-05T07:29:25;2.70;;;1.30;;
40731;SDS011;26420;52.256;9.096;2022-07-05T07:34:28;2.38;;;0.85;;
40731;SDS011;26420;52.256;9.096;2022-07-05T07:39:31;3.40;;;1.23;;
40731;SDS011;26420;52.256;9.096;2022-07-05T07:44:33;1.17;;;1.08;;
40731;SDS011;26420;52.256;9.096;2022-07-05T07:49:35;1.38;;;0.80;;
40731;SDS011;26420;52.256;9.096;2022-07-05T07:54:38;1.20;;;0.80;;
40731;SDS011;26420;52.256;9.096;2022-07-05T07:59:40;2.38;;;0.70;;
40731;SDS011;26420;52.256;9.096;2022-07-05T08:04:42;1.00;;;0.70;;
40731;SDS011;26420;52.256;9.096;2022-07-05T08:09:45;0.70;;;0.57;;
40731;SDS011;26420;52.256;9.096;2022-07-05T08:14:47;0.70;;;0.60;;
40731;SDS011;26420;52.256;9.096;2022-07-05T08:19:50;3.25;;;0.90;;
40731;SDS011;26420;52.256;9.096;2022-07-05T08:25:11;0.95;;;0.68;;
40731;SDS011;26420;52.256;9.096;2022-07-05T08:30:15;1.48;;;0.88;;
40731;SDS011;26420;52.256;9.096;2022-07-05T08:35:18;1.50;;;0.70;;
40731;SDS011;26420;52.256;9.096;2022-07-05T08:40:20;1.60;;;0.70;;
40731;SDS011;26420;52.256;9.096;2022-07-05T08:45:26;0.73;;;0.70;;
40731;SDS011;26420;52.256;9.096;2022-07-05T08:50:28;1.65;;;0.60;;
40731;SDS011;26420;52.256;9.096;2022-07-05T08:55:35;1.92;;;0.70;;
40731;SDS011;26420;52.256;9.096;2022-07-05T09:00:38;0.80;;;0.70;;
40731;SDS011;26420;52.256;9.096;2022-07-05T09:05:44;5.07;;;2.42;;
40731;SDS011;26420;52.256;9.096;2022-07-05T09:10:46;1.57;;;0.83;;
40731;SDS011;26420;52.256;9.096;2022-07-05T09:15:50;1.00;;;0.70;;
40731;SDS011;26420;52.256;9.096;2022-07-05T09:20:55;1.65;;;0.60;;
40731;SDS011;26420;52.256;9.096;2022-07-05T09:26:12;1.10;;;0.68;;
40731;SDS011;26420;52.256;9.096;2022-07-05T09:31:25;1.98;;;0.88;;
40731;SDS011;26420;52.256;9.096;2022-07-05T09:36:28;0.73;;;0.63;;
40731;SDS011;26420;52.256;9.096;2022-07-05T09:41:30;0.65;;;0.55;;
40731;SDS011;26420;52.256;9.096;2022-07-05T09:46:32;2.22;;;0.70;;
40731;SDS011;26420;52.256;9.096;2022-07-05T09:51:46;2.15;;;0.65;;
40731;SDS011;26420;52.256;9.096;2022-07-05T09:56:55;0.50;;;0.50;;
40731;SDS011;26420;52.256;9.096;2022-07-05T10:01:58;0.88;;;0.60;;
40731;SDS011;26420;52.256;9.096;2022-07-05T10:07:00;1.13;;;0.80;;
40731;SDS011;26420;52.256;9.096;2022-07-05T10:12:02;0.75;;;0.70;;
40731;SDS011;26420;52.256;9.096;2022-07-05T10:17:04;4.43;;;2.15;;
40731;SDS011;26420;52.256;9.096;2022-07-05T10:22:08;1.80;;;1.02;;
40731;SDS011;26420;52.256;9.096;2022-07-05T10:27:20;0.95;;;0.80;;
40731;SDS011;26420;52.256;9.096;2022-07-05T10:32:22;1.85;;;0.63;;
40731;SDS011;26420;52.256;9.096;2022-07-05T10:37:26;1.02;;;0.57;;
40731;SDS011;26420;52.256;9.096;2022-07-05T10:47:38;3.80;;;2.22;;
40731;SDS011;26420;52.256;9.096;2022-07-05T10:52:41;1.50;;;0.60;;
40731;SDS011;26420;52.256;9.096;2022-07-05T11:13:56;0.98;;;0.60;;
40731;SDS011;26420;52.256;9.096;2022-07-05T11:19:08;1.43;;;0.60;;
40731;SDS011;26420;52.256;9.096;2022-07-05T11:24:27;0.65;;;0.60;;
40731;SDS011;26420;52.256;9.096;2022-07-05T11:34:44;1.70;;;0.60;;
40731;SDS011;26420;52.256;9.096;2022-07-05T11:39:48;1.80;;;0.50;;
40731;SDS011;26420;52.256;9.096;2022-07-05T11:45:12;1.63;;;0.60;;
40731;SDS011;26420;52.256;9.096;2022-07-05T11:50:15;0.88;;;0.52;;
40731;SDS011;26420;52.256;9.096;2022-07-05T11:55:17;1.48;;;0.68;;
40731;SDS011;26420;52.256;9.096;2022-07-05T12:05:52;1.48;;;0.73;;
40731;SDS011;26420;52.256;9.096;2022-07-05T12:10:54;0.98;;;0.60;;
40731;SDS011;26420;52.256;9.096;2022-07-05T12:16:17;2.17;;;0.70;;
40731;SDS011;26420;52.256;9.096;2022-07-05T12:21:21;0.90;;;0.60;;
40731;SDS011;26420;52.256;9.096;2022-07-05T12:26:23;1.45;;;0.40;;
40731;SDS011;26420;52.256;9.096;2022-07-05T12:31:25;0.60;;;0.60;;
40731;SDS011;26420;52.256;9.096;2022-07-05T12:36:28;0.65;;;0.50;;
40731;SDS011;26420;52.256;9.096;2022-07-05T12:41:30;1.20;;;0.52;;
40731;SDS011;26420;52.256;9.096;2022-07-05T12:46:36;2.28;;;0.60;;
40731;SDS011;26420;52.256;9.096;2022-07-05T12:51:44;0.50;;;0.50;;
40731;SDS011;26420;52.256;9.096;2022-07-05T12:56:47;1.45;;;0.60;;
40731;SDS011;26420;52.256;9.096;2022-07-05T13:02:38;5.53;;;1.10;;
40731;SDS011;26420;52.256;9.096;2022-07-05T13:07:43;0.87;;;0.57;;
40731;SDS011;26420;52.256;9.096;2022-07-05T13:12:54;0.60;;;0.60;;
40731;SDS011;26420;52.256;9.096;2022-07-05T13:17:58;1.50;;;0.60;;
40731;SDS011;26420;52.256;9.096;2022-07-05T13:23:02;0.68;;;0.55;;
40731;SDS011;26420;52.256;9.096;2022-07-05T13:28:07;0.55;;;0.55;;
40731;SDS011;26420;52.256;9.096;2022-07-05T13:33:09;1.33;;;0.52;;
40731;SDS011;26420;52.256;9.096;2022-07-05T13:38:11;0.82;;;0.50;;
40731;SDS011;26420;52.256;9.096;2022-07-05T13:43:13;1.00;;;0.70;;
40731;SDS011;26420;52.256;9.096;2022-07-05T13:48:15;1.27;;;0.68;;
40731;SDS011;26420;52.256;9.096;2022-07-05T13:53:18;0.40;;;0.32;;
40731;SDS011;26420;52.256;9.096;2022-07-05T13:58:21;0.77;;;0.70;;
40731;SDS011;26420;52.256;9.096;2022-07-05T14:03:25;1.02;;;0.70;;
40731;SDS011;26420;52.256;9.096;2022-07-05T14:08:28;1.02;;;0.60;;
40731;SDS011;26420;52.256;9.096;2022-07-05T14:13:30;2.38;;;0.70;;
40731;SDS011;26420;52.256;9.096;2022-07-05T14:18:36;0.35;;;0.35;;
40731;SDS011;26420;52.256;9.096;2022-07-05T14:23:38;0.77;;;0.57;;
40731;SDS011;26420;52.256;9.096;2022-07-05T14:28:40;0.57;;;0.40;;
40731;SDS011;26420;52.256;9.096;2022-07-05T14:33:45;0.68;;;0.50;;
40731;SDS011;26420;52.256;9.096;2022-07-05T14:38:47;0.57;;;0.43;;
40731;SDS011;26420;52.256;9.096;2022-07-05T14:43:49;2.78;;;0.57;;
40731;SDS011;26420;52.256;9.096;2022-07-05T14:48:53;0.70;;;0.70;;
40731;SDS011;26420;52.256;9.096;2022-07-05T14:53:55;1.40;;;0.57;;
40731;SDS011;26420;52.256;9.096;2022-07-05T14:58:57;1.05;;;0.70;;
40731;SDS011;26420;52.256;9.096;2022-07-05T15:03:59;2.72;;;0.60;;
40731;SDS011;26420;52.256;9.096;2022-07-05T15:09:02;14.00;;;6.55;;
40731;SDS011;26420;52.256;9.096;2022-07-05T15:14:04;3.42;;;0.90;;
40731;SDS011;26420;52.256;9.096;2022-07-05T15:19:09;2.17;;;0.65;;
40731;SDS011;26420;52.256;9.096;2022-07-05T15:24:11;2.80;;;1.42;;
40731;SDS011;26420;52.256;9.096;2022-07-05T15:29:18;1.38;;;0.73;;
40731;SDS011;26420;52.256;9.096;2022-07-05T15:34:20;2.15;;;0.70;;
40731;SDS011;26420;52.256;9.096;2022-07-05T15:39:22;2.67;;;0.85;;
40731;SDS011;26420;52.256;9.096;2022-07-05T15:44:25;0.90;;;0.60;;
40731;SDS011;26420;52.256;9.096;2022-07-05T15:49:27;1.10;;;0.60;;
40731;SDS011;26420;52.256;9.096;2022-07-05T15:54:31;1.00;;;0.80;;
40731;SDS011;26420;52.256;9.096;2022-07-05T15:59:33;0.90;;;0.80;;
40731;SDS011;26420;52.256;9.096;2022-07-05T16:04:35;2.65;;;0.80;;
40731;SDS011;26420;52.256;9.096;2022-07-05T16:09:37;3.03;;;0.98;;
40731;SDS011;26420;52.256;9.096;2022-07-05T16:14:40;1.58;;;0.80;;
40731;SDS011;26420;52.256;9.096;2022-07-05T16:19:42;0.60;;;0.57;;
40731;SDS011;26420;52.256;9.096;2022-07-05T16:24:44;1.60;;;0.80;;
40731;SDS011;26420;52.256;9.096;2022-07-05T16:29:46;3.55;;;0.70;;
40731;SDS011;26420;52.256;9.096;2022-07-05T16:34:48;0.63;;;0.63;;
40731;SDS011;26420;52.256;9.096;2022-07-05T16:39:50;3.05;;;0.73;;
40731;SDS011;26420;52.256;9.096;2022-07-05T16:44:53;1.40;;;0.75;;
40731;SDS011;26420;52.256;9.096;2022-07-05T16:50:00;2.28;;;0.80;;
40731;SDS011;26420;52.256;9.096;2022-07-05T16:55:04;4.55;;;0.90;;
40731;SDS011;26420;52.256;9.096;2022-07-05T17:00:09;2.70;;;0.80;;
40731;SDS011;26420;52.256;9.096;2022-07-05T17:05:13;1.42;;;0.80;;
40731;SDS011;26420;52.256;9.096;2022-07-05T17:10:18;3.40;;;0.93;;
40731;SDS011;26420;52.256;9.096;2022-07-05T17:15:22;1.30;;;1.00;;
40731;SDS011;26420;52.256;9.096;2022-07-05T17:20:27;1.13;;;0.95;;
40731;SDS011;26420;52.256;9.096;2022-07-05T17:25:48;2.67;;;1.10;;
40731;SDS011;26420;52.256;9.096;2022-07-05T17:31:04;0.95;;;0.85;;
40731;SDS011;26420;52.256;9.096;2022-07-05T17:36:08;1.75;;;0.93;;
40731;SDS011;26420;52.256;9.096;2022-07-05T17:41:10;2.13;;;0.90;;
40731;SDS011;26420;52.256;9.096;2022-07-05T17:46:18;2.42;;;1.00;;
40731;SDS011;26420;52.256;9.096;2022-07-05T17:51:25;3.78;;;1.00;;
40731;SDS011;26420;52.256;9.096;2022-07-05T17:56:55;4.18;;;1.30;;
40731;SDS011;26420;52.256;9.096;2022-07-05T18:02:00;3.92;;;1.20;;
40731;SDS011;26420;52.256;9.096;2022-07-05T18:07:03;2.42;;;1.10;;
40731;SDS011;26420;52.256;9.096;2022-07-05T18:12:07;1.23;;;0.88;;
40731;SDS011;26420;52.256;9.096;2022-07-05T18:17:10;2.70;;;0.85;;
40731;SDS011;26420;52.256;9.096;2022-07-05T18:22:14;2.33;;;1.02;;
40731;SDS011;26420;52.256;9.096;2022-07-05T18:27:31;1.95;;;0.90;;
40731;SDS011;26420;52.256;9.096;2022-07-05T18:32:35;1.83;;;0.98;;
40731;SDS011;26420;52.256;9.096;2022-07-05T18:37:52;2.33;;;1.00;;
40731;SDS011;26420;52.256;9.096;2022-07-05T18:42:54;2.45;;;1.17;;
40731;SDS011;26420;52.256;9.096;2022-07-05T18:47:56;3.72;;;1.10;;
40731;SDS011;26420;52.256;9.096;2022-07-05T18:52:58;3.05;;;0.90;;
40731;SDS011;26420;52.256;9.096;2022-07-05T18:58:01;2.72;;;1.02;;
40731;SDS011;26420;52.256;9.096;2022-07-05T19:03:05;2.17;;;1.00;;
40731;SDS011;26420;52.256;9.096;2022-07-05T19:08:10;3.13;;;0.93;;
40731;SDS011;26420;52.256;9.096;2022-07-05T19:13:31;2.88;;;0.90;;
40731;SDS011;26420;52.256;9.096;2022-07-05T19:18:43;3.03;;;0.90;;
40731;SDS011;26420;52.256;9.096;2022-07-05T19:23:47;2.03;;;0.77;;
40731;SDS011;26420;52.256;9.096;2022-07-05T19:28:49;3.03;;;1.02;;
40731;SDS011;26420;52.256;9.096;2022-07-05T19:33:52;1.98;;;0.90;;
40731;SDS011;26420;52.256;9.096;2022-07-05T19:38:57;2.50;;;0.93;;
40731;SDS011;26420;52.256;9.096;2022-07-05T19:44:00;4.00;;;0.90;;
40731;SDS011;26420;52.256;9.096;2022-07-05T19:49:02;2.58;;;0.70;;
40731;SDS011;26420;52.256;9.096;2022-07-05T19:54:05;3.65;;;0.98;;
40731;SDS011;26420;52.256;9.096;2022-07-05T19:59:07;2.22;;;0.90;;
40731;SDS011;26420;52.256;9.096;2022-07-05T20:04:09;2.38;;;0.80;;
40731;SDS011;26420;52.256;9.096;2022-07-05T20:09:13;3.35;;;0.88;;
40731;SDS011;26420;52.256;9.096;2022-07-05T20:14:15;1.33;;;0.77;;
40731;SDS011;26420;52.256;9.096;2022-07-05T20:19:18;3.85;;;0.85;;
40731;SDS011;26420;52.256;9.096;2022-07-05T20:24:21;1.75;;;0.82;;
40731;SDS011;26420;52.256;9.096;2022-07-05T20:29:23;1.90;;;0.70;;
40731;SDS011;26420;52.256;9.096;2022-07-05T20:34:28;4.15;;;0.98;;
40731;SDS011;26420;52.256;9.096;2022-07-05T20:39:30;3.22;;;0.80;;
40731;SDS011;26420;52.256;9.096;2022-07-05T20:44:32;2.25;;;0.88;;
40731;SDS011;26420;52.256;9.096;2022-07-05T20:49:35;3.63;;;0.90;;
40731;SDS011;26420;52.256;9.096;2022-07-05T20:54:37;4.25;;;0.73;;
40731;SDS011;26420;52.256;9.096;2022-07-05T20:59:39;2.55;;;0.90;;
40731;SDS011;26420;52.256;9.096;2022-07-05T21:04:42;2.08;;;0.90;;
40731;SDS011;26420;52.256;9.096;2022-07-05T21:09:49;1.77;;;1.02;;
40731;SDS011;26420;52.256;9.096;2022-07-05T21:14:52;1.83;;;0.73;;
40731;SDS011;26420;52.256;9.096;2022-07-05T21:19:55;1.95;;;0.95;;
40731;SDS011;26420;52.256;9.096;2022-07-05T21:24:57;3.22;;;1.00;;
40731;SDS011;26420;52.256;9.096;2022-07-05T21:29:59;4.53;;;0.90;;
40731;SDS011;26420;52.256;9.096;2022-07-05T21:35:01;1.77;;;0.90;;
40731;SDS011;26420;52.256;9.096;2022-07-05T21:40:04;3.47;;;1.15;;
40731;SDS011;26420;52.256;9.096;2022-07-05T21:45:06;2.88;;;0.80;;
40731;SDS011;26420;52.256;9.096;2022-07-05T21:50:09;2.67;;;0.90;;
40731;SDS011;26420;52.256;9.096;2022-07-05T21:55:11;2.97;;;1.02;;
40731;SDS011;26420;52.256;9.096;2022-07-05T22:00:19;1.88;;;0.90;;
40731;SDS011;26420;52.256;9.096;2022-07-05T22:05:40;4.70;;;1.17;;
40731;SDS011;26420;52.256;9.096;2022-07-05T22:10:43;3.38;;;1.00;;
40731;SDS011;26420;52.256;9.096;2022-07-05T22:15:45;1.45;;;0.80;;
40731;SDS011;26420;52.256;9.096;2022-07-05T22:20:47;5.50;;;1.00;;
40731;SDS011;26420;52.256;9.096;2022-07-05T22:25:50;1.17;;;0.90;;
40731;SDS011;26420;52.256;9.096;2022-07-05T22:30:52;1.98;;;1.30;;
40731;SDS011;26420;52.256;9.096;2022-07-05T22:35:54;2.75;;;1.00;;
40731;SDS011;26420;52.256;9.096;2022-07-05T22:40:57;3.85;;;1.50;;
40731;SDS011;26420;52.256;9.096;2022-07-05T22:45:59;1.63;;;1.17;;
40731;SDS011;26420;52.256;9.096;2022-07-05T22:51:01;2.55;;;1.15;;
40731;SDS011;26420;52.256;9.096;2022-07-05T22:56:04;4.07;;;1.33;;
40731;SDS011;26420;52.256;9.096;2022-07-05T23:01:06;4.55;;;1.30;;
40731;SDS011;26420;52.256;9.096;2022-07-05T23:06:08;2.22;;;0.90;;
40731;SDS011;26420;52.256;9.096;2022-07-05T23:11:10;2.35;;;0.98;;
40731;SDS011;26420;52.256;9.096;2022-07-05T23:16:14;2.58;;;1.23;;
40731;SDS011;26420;52.256;9.096;2022-07-05T23:21:16;2.92;;;0.95;;
40731;SDS011;26420;52.256;9.096;2022-07-05T23:26:18;2.28;;;0.80;;
40731;SDS011;26420;52.256;9.096;2022-07-05T23:31:20;2.50;;;1.00;;
40731;SDS011;26420;52.256;9.096;2022-07-05T23:36:22;1.50;;;1.00;;
40731;SDS011;26420;52.256;9.096;2022-07-05T23:41:24;3.35;;;1.15;;
40731;SDS011;26420;52.256;9.096;2022-07-05T23:46:27;1.58;;;0.93;;
40731;SDS011;26420;52.256;9.096;2022-07-05T23:51:29;3.38;;;1.10;;
40731;SDS011;26420;52.256;9.096;2022-07-05T23:56:31;3.63;;;1.27;;
